| time (UTC) | temp C | wind direction | speed KPH | gust KPH | rain 1hr cm | rain 24hr cm | rain mn cm | humidity % | barometer mb |
| 20260507100118 | 21 | 90 | 1.6 | 6.4 | 0.00 | 0.00 | 0.00 | 43 | 1013.8 |
| 20260507095618 | 22 | 45 | 3.2 | 8.0 | 0.00 | 0.13 | 0.00 | 41 | 1013.9 |
| 20260507095118 | 22 | 90 | 1.6 | 6.4 | 0.00 | 0.13 | 0.00 | 40 | 1013.8 |
| 20260507094618 | 22 | 135 | 1.6 | 4.8 | 0.00 | 0.13 | 0.00 | 39 | 1014.0 |
| 20260507094118 | 22 | 180 | 4.8 | 11.3 | 0.00 | 0.13 | 0.00 | 42 | 1014.0 |
| 20260507093619 | 21 | 135 | 3.2 | 8.0 | 0.00 | 0.13 | 0.00 | 44 | 1013.9 |
| 20260507093119 | 21 | 45 | 1.6 | 6.4 | 0.00 | 0.13 | 0.00 | 44 | 1014.0 |
| 20260507092619 | 21 | 135 | 1.6 | 6.4 | 0.00 | 0.13 | 0.00 | 45 | 1014.0 |
| 20260507092117 | 21 | 45 | 3.2 | 11.3 | 0.00 | 0.13 | 0.00 | 45 | 1014.0 |
| 20260507091617 | 21 | 45 | 3.2 | 8.0 | 0.00 | 0.13 | 0.00 | 46 | 1014.0 |
| 20260507091118 | 21 | 45 | 3.2 | 8.0 | 0.00 | 0.13 | 0.00 | 45 | 1013.9 |
| 20260507090618 | 22 | 90 | 3.2 | 8.0 | 0.00 | 0.13 | 0.00 | 43 | 1013.9 |
| 20260507090118 | 21 | 135 | 1.6 | 3.2 | 0.00 | 0.00 | 0.00 | 47 | 1013.8 |
| 20260507085618 | 21 | 135 | 1.6 | 6.4 | 0.00 | 0.13 | 0.00 | 46 | 1013.8 |
| 20260507085118 | 21 | 315 | 1.6 | 3.2 | 0.00 | 0.13 | 0.00 | 47 | 1013.9 |
| 20260507084618 | 21 | 180 | 3.2 | 11.3 | 0.00 | 0.13 | 0.00 | 47 | 1013.9 |
| 20260507084119 | 20 | 135 | 3.2 | 6.4 | 0.00 | 0.13 | 0.00 | 50 | 1013.8 |
| 20260507083618 | 19 | 90 | 3.2 | 9.7 | 0.00 | 0.13 | 0.00 | 51 | 1013.7 |
| 20260507083117 | 18 | 135 | 0.0 | 1.6 | 0.00 | 0.13 | 0.00 | 52 | 1013.8 |
| 20260507082618 | 18 | 360 | 1.6 | 6.4 | 0.00 | 0.13 | 0.00 | 51 | 1013.6 |
| 20260507082118 | 18 | 135 | 0.0 | 3.2 | 0.00 | 0.13 | 0.00 | 51 | 1013.6 |
| 20260507081617 | 18 | 45 | 1.6 | 4.8 | 0.00 | 0.13 | 0.00 | 51 | 1013.6 |
| 20260507081117 | 18 | 135 | 1.6 | 3.2 | 0.00 | 0.13 | 0.00 | 51 | 1013.6 |
| 20260507080617 | 19 | 45 | 1.6 | 3.2 | 0.00 | 0.13 | 0.00 | 53 | 1013.7 |
| 20260507080118 | 18 | 45 | 0.0 | 3.2 | 0.00 | 0.00 | 0.00 | 54 | 1013.7 |
| 20260507075618 | 18 | 90 | 1.6 | 3.2 | 0.00 | 0.13 | 0.00 | 53 | 1013.6 |
| 20260507075118 | 18 | 158 | 0.0 | 3.2 | 0.00 | 0.13 | 0.00 | 57 | 1013.4 |
| 20260507074618 | 18 | 158 | 0.0 | 3.2 | 0.00 | 0.13 | 0.00 | 57 | 1013.4 |
| 20260507074117 | 18 | 45 | 0.0 | 1.6 | 0.13 | 0.13 | 0.00 | 57 | 1013.5 |
| 20260507073617 | 17 | 180 | 1.6 | 3.2 | 0.13 | 0.13 | 0.00 | 58 | 1013.5 |
| 20260507073117 | 17 | 180 | 1.6 | 3.2 | 0.13 | 0.13 | 0.00 | 59 | 1013.4 |
| 20260507072617 | 17 | 90 | 0.0 | 3.2 | 0.13 | 0.13 | 0.00 | 59 | 1013.3 |
| 20260507072117 | 17 | 45 | 1.6 | 4.8 | 0.13 | 0.13 | 0.00 | 60 | 1013.3 |
| 20260507071617 | 17 | 90 | 1.6 | 4.8 | 0.13 | 0.13 | 0.00 | 61 | 1013.3 |
| 20260507071118 | 17 | 180 | 0.0 | 0.0 | 0.13 | 0.13 | 0.00 | 69 | 1013.3 |
| 20260507070617 | 16 | 225 | 0.0 | 0.0 | 0.13 | 0.13 | 0.00 | 68 | 1013.3 |
| 20260507070117 | 16 | 315 | 0.0 | 3.2 | 0.00 | 0.00 | 0.00 | 70 | 1013.1 |
| 20260507065617 | 16 | 45 | 0.0 | 1.6 | 0.13 | 0.13 | 0.00 | 70 | 1013.1 |
| 20260507065117 | 16 | 45 | 1.6 | 3.2 | 0.13 | 0.13 | 0.00 | 70 | 1012.8 |
| 20260507064617 | 15 | 270 | 0.0 | 3.2 | 0.13 | 0.13 | 0.00 | 70 | 1013.0 |
| 20260507064118 | 15 | 315 | 1.6 | 3.2 | 0.00 | 0.00 | 0.00 | 71 | 1013.0 |
| 20260507063618 | 15 | 315 | 0.0 | 3.2 | 0.00 | 0.00 | 0.00 | 72 | 1013.1 |
| 20260507063117 | 15 | 360 | 1.6 | 4.8 | 0.00 | 0.00 | 0.00 | 73 | 1013.0 |
| 20260507062617 | 15 | 270 | 0.0 | 0.0 | 0.00 | 0.00 | 0.00 | 74 | 1012.9 |
| 20260507062117 | 15 | 270 | 0.0 | 3.2 | 0.00 | 0.00 | 0.00 | 74 | 1012.9 |
| 20260507061617 | 14 | 225 | 0.0 | 3.2 | 0.00 | 0.00 | 0.00 | 75 | 1012.8 |
| 20260507061118 | 14 | 225 | 0.0 | 3.2 | 0.00 | 0.00 | 0.00 | 76 | 1012.9 |
| 20260507060617 | 14 | 315 | 0.0 | 0.0 | 0.00 | 0.00 | 0.00 | 76 | 1012.9 |
| 20260507060117 | 14 | 315 | 0.0 | 0.0 | 0.00 | 0.00 | 0.00 | 76 | 1012.7 |
| 20260507055617 | 13 | 315 | 1.6 | 3.2 | 0.00 | 0.00 | 0.00 | 76 | 1012.7 |
| 20260507055117 | 13 | 360 | 1.6 | 3.2 | 0.00 | 0.00 | 0.00 | 75 | 1012.7 |
| 20260507054617 | 13 | 225 | 1.6 | 3.2 | 0.00 | 0.00 | 0.00 | 75 | 1012.8 |
| 20260507054117 | 13 | 225 | 0.0 | 3.2 | 0.00 | 0.00 | 0.00 | 76 | 1012.6 |
| 20260507053617 | 13 | 225 | 0.0 | 0.0 | 0.00 | 0.00 | 0.00 | 76 | 1012.6 |
| 20260507053117 | 13 | 180 | 0.0 | 1.6 | 0.00 | 0.00 | 0.00 | 76 | 1012.4 |
| 20260507052617 | 13 | 180 | 0.0 | 0.0 | 0.00 | 0.00 | 0.00 | 76 | 1012.5 |
| 20260507052117 | 13 | 338 | 1.6 | 3.2 | 0.00 | 0.00 | 0.00 | 76 | 1012.5 |
| 20260507051617 | 13 | 360 | 1.6 | 4.8 | 0.00 | 0.00 | 0.00 | 76 | 1012.4 |
| 20260507051117 | 13 | 180 | 0.0 | 3.2 | 0.00 | 0.00 | 0.00 | 76 | 1012.3 |
| 20260507050617 | 13 | 225 | 0.0 | 1.6 | 0.00 | 0.00 | 0.00 | 76 | 1012.3 |
| 20260507050117 | 12 | 180 | 0.0 | 1.6 | 0.00 | 0.00 | 0.00 | 76 | 1012.3 |
| 20260507045617 | 12 | 270 | 1.6 | 3.2 | 0.00 | 0.00 | 0.00 | 76 | 1012.3 |
| 20260507045117 | 12 | 225 | 0.0 | 3.2 | 0.00 | 0.00 | 0.00 | 76 | 1012.2 |
| 20260507044617 | 12 | 315 | 1.6 | 6.4 | 0.00 | 0.00 | 0.00 | 75 | 1012.0 |
| 20260507044117 | 12 | 315 | 1.6 | 6.4 | 0.00 | 0.00 | 0.00 | 75 | 1012.0 |
| 20260507043617 | 12 | 45 | 0.0 | 0.0 | 0.00 | 0.00 | 0.00 | 74 | 1012.1 |
| 20260507043117 | 12 | 45 | 0.0 | 0.0 | 0.00 | 0.00 | 0.00 | 74 | 1012.0 |
| 20260507042617 | 12 | 45 | 0.0 | 3.2 | 0.00 | 0.00 | 0.00 | 74 | 1011.9 |
| 20260507042117 | 13 | 270 | 1.6 | 3.2 | 0.00 | 0.00 | 0.00 | 74 | 1011.9 |
| 20260507041619 | 13 | 270 | 1.6 | 4.8 | 0.00 | 0.00 | 0.00 | 74 | 1011.9 |
| 20260507041116 | 13 | 270 | 1.6 | 3.2 | 0.00 | 0.00 | 0.00 | 74 | 1011.9 |
| 20260507040618 | 13 | 270 | 1.6 | 3.2 | 0.00 | 0.00 | 0.00 | 74 | 1011.9 |
| 20260507040116 | 13 | 225 | 1.6 | 3.2 | 0.00 | 0.00 | 0.00 | 73 | 1011.6 |
| 20260507035617 | 13 | 225 | 1.6 | 3.2 | 0.00 | 0.00 | 0.00 | 73 | 1011.6 |
| 20260507035117 | 13 | 225 | 0.0 | 3.2 | 0.00 | 0.00 | 0.00 | 73 | 1011.8 |
| 20260507034617 | 13 | 225 | 1.6 | 3.2 | 0.00 | 0.00 | 0.00 | 73 | 1011.7 |
| 20260507034117 | 13 | 180 | 0.0 | 3.2 | 0.00 | 0.00 | 0.00 | 73 | 1011.8 |
| 20260507033616 | 13 | 90 | 0.0 | 3.2 | 0.00 | 0.00 | 0.00 | 73 | 1011.7 |
| 20260507033116 | 13 | 270 | 1.6 | 4.8 | 0.00 | 0.00 | 0.00 | 73 | 1011.7 |
| 20260507032616 | 13 | 315 | 1.6 | 3.2 | 0.00 | 0.00 | 0.00 | 72 | 1011.5 |
| 20260507032117 | 13 | 315 | 1.6 | 3.2 | 0.00 | 0.00 | 0.00 | 72 | 1011.5 |
| 20260507031617 | 13 | 315 | 0.0 | 3.2 | 0.00 | 0.00 | 0.00 | 72 | 1011.4 |
| 20260507031116 | 13 | 225 | 1.6 | 3.2 | 0.00 | 0.00 | 0.00 | 72 | 1011.6 |
| 20260507030617 | 13 | 225 | 1.6 | 3.2 | 0.00 | 0.00 | 0.00 | 72 | 1011.7 |
| 20260507030116 | 13 | 225 | 1.6 | 3.2 | 0.00 | 0.00 | 0.00 | 71 | 1011.4 |
| 20260507025616 | 13 | 225 | 0.0 | 3.2 | 0.00 | 0.00 | 0.00 | 71 | 1011.4 |
| 20260507025117 | 14 | 360 | 1.6 | 3.2 | 0.00 | 0.00 | 0.00 | 70 | 1011.5 |
| 20260507024617 | 14 | 315 | 0.0 | 1.6 | 0.00 | 0.00 | 0.00 | 70 | 1011.5 |
| 20260507024117 | 14 | 315 | 1.6 | 3.2 | 0.00 | 0.00 | 0.00 | 70 | 1011.5 |
| 20260507023617 | 14 | 360 | 1.6 | 3.2 | 0.00 | 0.00 | 0.00 | 70 | 1011.4 |
| 20260507023117 | 14 | 225 | 1.6 | 4.8 | 0.00 | 0.00 | 0.00 | 70 | 1011.4 |
| 20260507022616 | 14 | 225 | 1.6 | 4.8 | 0.00 | 0.00 | 0.00 | 70 | 1011.4 |
| 20260507022117 | 14 | 180 | 1.6 | 3.2 | 0.00 | 0.00 | 0.00 | 71 | 1011.4 |
| 20260507021617 | 14 | 270 | 0.0 | 1.6 | 0.00 | 0.00 | 0.00 | 71 | 1011.5 |
| 20260507021116 | 14 | 315 | 1.6 | 3.2 | 0.00 | 0.00 | 0.00 | 70 | 1011.5 |
| 20260507020617 | 14 | 360 | 1.6 | 3.2 | 0.00 | 0.00 | 0.00 | 70 | 1011.4 |
| 20260507020116 | 15 | 270 | 1.6 | 4.8 | 0.00 | 0.00 | 0.00 | 70 | 1011.5 |
| 20260507015616 | 15 | 315 | 1.6 | 3.2 | 0.00 | 0.00 | 0.00 | 70 | 1011.4 |
| 20260507015116 | 15 | 225 | 1.6 | 3.2 | 0.00 | 0.00 | 0.00 | 70 | 1011.4 |
| 20260507014616 | 15 | 135 | 1.6 | 3.2 | 0.00 | 0.00 | 0.00 | 70 | 1011.4 |
| 20260507014117 | 15 | 135 | 1.6 | 3.2 | 0.00 | 0.00 | 0.00 | 70 | 1011.5 |
| 20260507013616 | 15 | 180 | 1.6 | 4.8 | 0.00 | 0.00 | 0.00 | 70 | 1011.3 |
| 20260507013117 | 15 | 180 | 3.2 | 9.7 | 0.00 | 0.00 | 0.00 | 70 | 1011.4 |
| 20260507012617 | 15 | 180 | 3.2 | 11.3 | 0.00 | 0.00 | 0.00 | 70 | 1011.4 |
| 20260507012116 | 15 | 180 | 3.2 | 6.4 | 0.00 | 0.00 | 0.00 | 70 | 1011.5 |
| 20260507011617 | 15 | 180 | 1.6 | 6.4 | 0.00 | 0.00 | 0.00 | 70 | 1011.4 |
| 20260507011116 | 15 | 180 | 3.2 | 6.4 | 0.00 | 0.00 | 0.00 | 70 | 1011.3 |
| 20260507010617 | 15 | 180 | 1.6 | 6.4 | 0.00 | 0.00 | 0.00 | 70 | 1011.4 |
| 20260507010116 | 15 | 180 | 1.6 | 6.4 | 0.00 | 0.00 | 0.00 | 70 | 1011.4 |
| 20260507005617 | 15 | 180 | 3.2 | 6.4 | 0.00 | 0.00 | 0.00 | 70 | 1011.4 |
| 20260507005116 | 15 | 135 | 1.6 | 3.2 | 0.00 | 0.00 | 0.00 | 70 | 1011.6 |
| 20260507004616 | 15 | 135 | 1.6 | 3.2 | 0.00 | 0.00 | 0.00 | 70 | 1011.5 |
| 20260507004117 | 15 | 180 | 1.6 | 4.8 | 0.00 | 0.00 | 0.00 | 70 | 1011.3 |
| 20260507003617 | 15 | 180 | 1.6 | 4.8 | 0.00 | 0.00 | 0.00 | 70 | 1011.3 |
| 20260507003116 | 15 | 158 | 1.6 | 6.4 | 0.00 | 0.00 | 0.00 | 70 | 1011.4 |
| 20260507002617 | 15 | 180 | 1.6 | 3.2 | 0.00 | 0.00 | 0.00 | 70 | 1011.4 |
| 20260507002116 | 15 | 180 | 0.0 | 3.2 | 0.00 | 0.00 | 0.00 | 70 | 1011.5 |
| 20260507001616 | 15 | 360 | 1.6 | 3.2 | 0.00 | 0.00 | 0.00 | 70 | 1011.4 |
| 20260507001116 | 15 | 315 | 1.6 | 4.8 | 0.00 | 0.00 | 0.00 | 70 | 1011.4 |
| 20260507000616 | 15 | 315 | 0.0 | 3.2 | 0.00 | 0.00 | 0.00 | 70 | 1011.4 |
| 20260507000117 | 15 | 270 | 1.6 | 4.8 | 0.00 | 0.00 | 0.00 | 70 | 1011.4 |
| 20260506235617 | 15 | 360 | 1.6 | 4.8 | 0.00 | 0.00 | 0.00 | 69 | 1011.4 |
| 20260506235116 | 15 | 360 | 1.6 | 4.8 | 0.00 | 0.00 | 0.00 | 69 | 1011.2 |
| 20260506234616 | 15 | 315 | 0.0 | 3.2 | 0.00 | 0.00 | 0.00 | 69 | 1011.3 |
| 20260506234117 | 15 | 315 | 1.6 | 6.4 | 0.00 | 0.00 | 0.00 | 69 | 1011.2 |
| 20260506233616 | 15 | 225 | 0.0 | 3.2 | 0.00 | 0.00 | 0.00 | 69 | 1011.2 |
| 20260506233117 | 15 | 225 | 1.6 | 6.4 | 0.00 | 0.00 | 0.00 | 69 | 1011.3 |
| 20260506232616 | 15 | 270 | 1.6 | 6.4 | 0.00 | 0.00 | 0.00 | 69 | 1011.2 |
| 20260506232116 | 15 | 180 | 1.6 | 6.4 | 0.00 | 0.00 | 0.00 | 68 | 1011.3 |
| 20260506231616 | 15 | 270 | 1.6 | 3.2 | 0.00 | 0.00 | 0.00 | 68 | 1011.3 |
| 20260506231116 | 15 | 180 | 1.6 | 3.2 | 0.00 | 0.00 | 0.00 | 68 | 1011.4 |
| 20260506230616 | 15 | 135 | 3.2 | 6.4 | 0.00 | 0.00 | 0.00 | 69 | 1011.3 |
| 20260506230116 | 15 | 180 | 3.2 | 9.7 | 0.00 | 0.00 | 0.00 | 69 | 1011.4 |
| 20260506225617 | 15 | 135 | 1.6 | 4.8 | 0.00 | 0.00 | 0.00 | 69 | 1011.4 |
| 20260506225116 | 15 | 135 | 3.2 | 9.7 | 0.00 | 0.00 | 0.00 | 70 | 1011.3 |
| 20260506224617 | 15 | 135 | 3.2 | 9.7 | 0.00 | 0.00 | 0.00 | 70 | 1011.3 |
| 20260506224116 | 15 | 180 | 1.6 | 3.2 | 0.00 | 0.00 | 0.00 | 71 | 1011.2 |
| 20260506223616 | 15 | 90 | 0.0 | 1.6 | 0.00 | 0.00 | 0.00 | 71 | 1011.3 |
| 20260506223117 | 14 | 180 | 0.0 | 3.2 | 0.00 | 0.00 | 0.00 | 72 | 1011.2 |
| 20260506222616 | 14 | 180 | 0.0 | 3.2 | 0.00 | 0.00 | 0.00 | 72 | 1011.2 |
| 20260506222116 | 14 | 225 | 1.6 | 3.2 | 0.00 | 0.00 | 0.00 | 72 | 1011.2 |
| 20260506221616 | 14 | 315 | 1.6 | 3.2 | 0.00 | 0.00 | 0.00 | 72 | 1011.3 |
| 20260506221117 | 14 | 315 | 0.0 | 0.0 | 0.00 | 0.00 | 0.00 | 72 | 1011.1 |
| 20260506220616 | 14 | 225 | 0.0 | 0.0 | 0.00 | 0.00 | 0.00 | 72 | 1011.2 |
| 20260506220116 | 14 | 315 | 0.0 | 3.2 | 0.00 | 0.00 | 0.00 | 73 | 1011.2 |
| 20260506215616 | 14 | 225 | 1.6 | 3.2 | 0.00 | 0.00 | 0.00 | 73 | 1011.2 |
| 20260506215116 | 14 | 270 | 0.0 | 3.2 | 0.00 | 0.00 | 0.00 | 73 | 1011.1 |
| 20260506214616 | 13 | 270 | 1.6 | 3.2 | 0.00 | 0.00 | 0.00 | 73 | 1011.0 |
| 20260506214117 | 13 | 270 | 0.0 | 0.0 | 0.00 | 0.00 | 0.00 | 73 | 1011.1 |
| 20260506213616 | 13 | 270 | 0.0 | 0.0 | 0.00 | 0.00 | 0.00 | 73 | 1011.1 |
| 20260506213116 | 13 | 270 | 0.0 | 3.2 | 0.00 | 0.00 | 0.00 | 73 | 1011.2 |
| 20260506212616 | 13 | 225 | 1.6 | 3.2 | 0.00 | 0.00 | 0.00 | 73 | 1011.1 |
| 20260506212116 | 13 | 225 | 0.0 | 1.6 | 0.00 | 0.00 | 0.00 | 73 | 1011.0 |
| 20260506211616 | 13 | 225 | 0.0 | 3.2 | 0.00 | 0.00 | 0.00 | 72 | 1011.0 |
| 20260506211116 | 13 | 225 | 1.6 | 3.2 | 0.00 | 0.00 | 0.00 | 72 | 1010.9 |
| 20260506210616 | 13 | 225 | 0.0 | 1.6 | 0.00 | 0.00 | 0.00 | 72 | 1010.9 |
| 20260506210116 | 14 | 270 | 0.0 | 3.2 | 0.00 | 0.00 | 0.00 | 71 | 1010.9 |
| 20260506205616 | 14 | 293 | 0.0 | 3.2 | 0.00 | 0.00 | 0.00 | 71 | 1010.8 |
| 20260506205116 | 14 | 270 | 0.0 | 3.2 | 0.00 | 0.00 | 0.00 | 70 | 1010.7 |
| 20260506204616 | 15 | 315 | 1.6 | 3.2 | 0.00 | 0.00 | 0.00 | 70 | 1010.8 |
| 20260506204116 | 15 | 315 | 1.6 | 3.2 | 0.00 | 0.00 | 0.00 | 70 | 1010.8 |
| 20260506203616 | 15 | 225 | 1.6 | 3.2 | 0.00 | 0.00 | 0.00 | 70 | 1010.8 |
| 20260506203116 | 15 | 270 | 0.0 | 3.2 | 0.00 | 0.00 | 0.00 | 69 | 1010.8 |
| 20260506202616 | 15 | 180 | 1.6 | 4.8 | 0.00 | 0.00 | 0.00 | 68 | 1010.8 |
| 20260506202116 | 15 | 23 | 0.0 | 3.2 | 0.00 | 0.00 | 0.00 | 67 | 1010.8 |
| 20260506201616 | 16 | 315 | 0.0 | 3.2 | 0.00 | 0.00 | 0.00 | 67 | 1010.7 |
| 20260506201116 | 16 | 315 | 1.6 | 3.2 | 0.00 | 0.00 | 0.00 | 67 | 1010.8 |
| 20260506200616 | 16 | 315 | 1.6 | 3.2 | 0.00 | 0.00 | 0.00 | 67 | 1010.8 |
| 20260506200116 | 16 | 180 | 1.6 | 8.0 | 0.00 | 0.00 | 0.00 | 67 | 1010.7 |
| 20260506195616 | 16 | 225 | 1.6 | 6.4 | 0.00 | 0.00 | 0.00 | 67 | 1010.8 |
| 20260506195116 | 16 | 225 | 3.2 | 9.7 | 0.00 | 0.00 | 0.00 | 67 | 1010.7 |
| 20260506194616 | 16 | 180 | 4.8 | 12.9 | 0.00 | 0.00 | 0.00 | 67 | 1010.8 |
| 20260506194116 | 16 | 180 | 3.2 | 8.0 | 0.00 | 0.00 | 0.00 | 67 | 1010.8 |
| 20260506193616 | 16 | 225 | 1.6 | 4.8 | 0.00 | 0.00 | 0.00 | 67 | 1010.8 |
| 20260506193116 | 16 | 180 | 1.6 | 4.8 | 0.00 | 0.00 | 0.00 | 67 | 1010.7 |
| 20260506192616 | 16 | 158 | 1.6 | 6.4 | 0.00 | 0.00 | 0.00 | 66 | 1010.6 |
| 20260506192116 | 16 | 68 | 1.6 | 3.2 | 0.00 | 0.00 | 0.00 | 66 | 1010.6 |
| 20260506191616 | 16 | 135 | 0.0 | 3.2 | 0.00 | 0.00 | 0.00 | 65 | 1010.5 |
| 20260506191116 | 16 | 270 | 1.6 | 4.8 | 0.00 | 0.00 | 0.00 | 65 | 1010.5 |
| 20260506190615 | 16 | 225 | 3.2 | 8.0 | 0.00 | 0.00 | 0.00 | 65 | 1010.3 |
| 20260506190115 | 16 | 180 | 3.2 | 11.3 | 0.00 | 0.00 | 0.00 | 65 | 1010.4 |
| 20260506185616 | 16 | 180 | 3.2 | 11.3 | 0.00 | 0.00 | 0.00 | 65 | 1010.3 |
| 20260506185115 | 16 | 225 | 3.2 | 8.0 | 0.00 | 0.00 | 0.00 | 64 | 1010.2 |
| 20260506184616 | 16 | 180 | 3.2 | 8.0 | 0.00 | 0.00 | 0.00 | 64 | 1010.0 |
| 20260506184117 | 17 | 180 | 3.2 | 8.0 | 0.00 | 0.00 | 0.00 | 64 | 1010.0 |
| 20260506183615 | 17 | 315 | 3.2 | 9.7 | 0.00 | 0.00 | 0.00 | 64 | 1010.1 |
| 20260506183116 | 17 | 225 | 3.2 | 9.7 | 0.00 | 0.00 | 0.00 | 64 | 1009.8 |
| 20260506182616 | 17 | 135 | 4.8 | 12.9 | 0.00 | 0.00 | 0.00 | 63 | 1009.6 |
| 20260506182116 | 17 | 135 | 4.8 | 14.5 | 0.00 | 0.00 | 0.00 | 63 | 1009.6 |
| 20260506181616 | 17 | 225 | 3.2 | 12.9 | 0.00 | 0.00 | 0.00 | 63 | 1009.5 |
| 20260506181116 | 17 | 180 | 1.6 | 6.4 | 0.00 | 0.00 | 0.00 | 63 | 1009.6 |
| 20260506180616 | 17 | 225 | 4.8 | 12.9 | 0.00 | 0.00 | 0.00 | 61 | 1009.7 |
| 20260506180116 | 17 | 225 | 4.8 | 12.9 | 0.00 | 0.00 | 0.00 | 61 | 1009.7 |
| 20260506175616 | 17 | 225 | 4.8 | 12.9 | 0.00 | 0.00 | 0.00 | 61 | 1009.7 |
| 20260506175115 | 17 | 90 | 1.6 | 4.8 | 0.00 | 0.00 | 0.00 | 60 | 1009.7 |
| 20260506174616 | 17 | 135 | 3.2 | 6.4 | 0.00 | 0.00 | 0.00 | 60 | 1009.7 |
| 20260506174115 | 17 | 225 | 3.2 | 8.0 | 0.00 | 0.00 | 0.00 | 60 | 1009.7 |
| 20260506173615 | 17 | 225 | 4.8 | 14.5 | 0.00 | 0.00 | 0.00 | 60 | 1009.6 |
| 20260506173115 | 17 | 135 | 3.2 | 8.0 | 0.00 | 0.00 | 0.00 | 60 | 1009.6 |
| 20260506172615 | 18 | 135 | 1.6 | 8.0 | 0.00 | 0.00 | 0.00 | 60 | 1009.4 |
| 20260506172116 | 18 | 135 | 4.8 | 14.5 | 0.00 | 0.00 | 0.00 | 60 | 1009.5 |
| 20260506171616 | 18 | 90 | 6.4 | 22.5 | 0.00 | 0.00 | 0.00 | 60 | 1009.5 |
| 20260506171116 | 18 | 180 | 3.2 | 17.7 | 0.00 | 0.00 | 0.00 | 60 | 1009.5 |
| 20260506170616 | 18 | 180 | 3.2 | 17.7 | 0.00 | 0.00 | 0.00 | 60 | 1009.5 |
| 20260506170115 | 18 | 225 | 8.0 | 22.5 | 0.00 | 0.00 | 0.00 | 59 | 1009.6 |
| 20260506165615 | 18 | 180 | 8.0 | 25.7 | 0.00 | 0.00 | 0.00 | 58 | 1009.6 |
| 20260506165116 | 19 | 135 | 8.0 | 24.1 | 0.00 | 0.00 | 0.00 | 57 | 1009.6 |
| 20260506164616 | 19 | 248 | 8.0 | 25.7 | 0.00 | 0.00 | 0.00 | 57 | 1009.6 |
| 20260506164116 | 18 | 180 | 4.8 | 16.1 | 0.00 | 0.00 | 0.00 | 58 | 1009.6 |
| 20260506163616 | 18 | 158 | 9.7 | 24.1 | 0.00 | 0.00 | 0.00 | 57 | 1009.7 |
| 20260506163116 | 19 | 135 | 8.0 | 24.1 | 0.00 | 0.00 | 0.00 | 57 | 1009.7 |
| 20260506162615 | 19 | 45 | 9.7 | 27.4 | 0.00 | 0.00 | 0.00 | 56 | 1009.8 |
| 20260506162116 | 19 | 135 | 8.0 | 19.3 | 0.00 | 0.00 | 0.00 | 56 | 1009.8 |
| 20260506161616 | 18 | 90 | 4.8 | 17.7 | 0.00 | 0.00 | 0.00 | 58 | 1009.9 |
| 20260506161116 | 18 | 270 | 6.4 | 20.9 | 0.00 | 0.00 | 0.00 | 57 | 1009.9 |
| 20260506160615 | 19 | 180 | 9.7 | 29.0 | 0.00 | 0.00 | 0.00 | 56 | 1009.9 |
| 20260506160115 | 19 | 180 | 9.7 | 29.0 | 0.00 | 0.00 | 0.00 | 56 | 1009.9 |
| 20260506155616 | 19 | 180 | 6.4 | 20.9 | 0.00 | 0.00 | 0.00 | 55 | 1009.9 |
| 20260506155116 | 19 | 225 | 4.8 | 19.3 | 0.00 | 0.00 | 0.00 | 55 | 1010.0 |
| 20260506154616 | 20 | 225 | 6.4 | 22.5 | 0.00 | 0.00 | 0.00 | 54 | 1010.0 |
| 20260506154116 | 20 | 180 | 8.0 | 20.9 | 0.00 | 0.00 | 0.00 | 55 | 1010.1 |
| 20260506153616 | 19 | 225 | 11.3 | 27.4 | 0.00 | 0.00 | 0.00 | 54 | 1010.2 |
| 20260506153115 | 20 | 180 | 14.5 | 41.8 | 0.00 | 0.00 | 0.00 | 54 | 1010.0 |
| 20260506152615 | 20 | 180 | 4.8 | 16.1 | 0.00 | 0.00 | 0.00 | 55 | 1010.0 |
| 20260506152115 | 20 | 135 | 6.4 | 17.7 | 0.00 | 0.00 | 0.00 | 54 | 1009.9 |
| 20260506151615 | 20 | 158 | 8.0 | 24.1 | 0.00 | 0.00 | 0.00 | 54 | 1010.1 |
| 20260506151116 | 20 | 158 | 4.8 | 17.7 | 0.00 | 0.00 | 0.00 | 54 | 1010.1 |
| 20260506150615 | 19 | 180 | 11.3 | 27.4 | 0.00 | 0.00 | 0.00 | 54 | 1010.2 |
| 20260506150116 | 20 | 135 | 8.0 | 20.9 | 0.00 | 0.00 | 0.00 | 54 | 1009.9 |
| 20260506145616 | 20 | 225 | 11.3 | 33.8 | 0.00 | 0.00 | 0.00 | 53 | 1010.0 |
| 20260506145115 | 20 | 270 | 6.4 | 16.1 | 0.00 | 0.00 | 0.00 | 54 | 1009.9 |
| 20260506144616 | 20 | 158 | 9.7 | 27.4 | 0.00 | 0.00 | 0.00 | 53 | 1010.0 |
| 20260506144115 | 20 | 180 | 8.0 | 20.9 | 0.00 | 0.00 | 0.00 | 53 | 1009.9 |
| 20260506143615 | 20 | 180 | 8.0 | 27.4 | 0.00 | 0.00 | 0.00 | 52 | 1010.1 |
| 20260506143116 | 21 | 180 | 12.9 | 38.6 | 0.00 | 0.00 | 0.00 | 50 | 1010.0 |
| 20260506142616 | 21 | 225 | 8.0 | 27.4 | 0.00 | 0.00 | 0.00 | 50 | 1009.9 |
| 20260506142115 | 21 | 225 | 4.8 | 12.9 | 0.00 | 0.00 | 0.00 | 51 | 1009.9 |
| 20260506141615 | 21 | 180 | 12.9 | 40.2 | 0.00 | 0.00 | 0.00 | 50 | 1009.9 |
| 20260506141115 | 21 | 135 | 14.5 | 43.5 | 0.00 | 0.00 | 0.00 | 50 | 1009.8 |
| 20260506140615 | 21 | 180 | 12.9 | 38.6 | 0.00 | 0.00 | 0.00 | 50 | 1009.9 |
| 20260506140115 | 21 | 135 | 9.7 | 27.4 | 0.00 | 0.00 | 0.00 | 49 | 1010.0 |
| 20260506135615 | 22 | 180 | 12.9 | 49.9 | 0.00 | 0.00 | 0.00 | 48 | 1010.0 |
| 20260506135115 | 21 | 180 | 9.7 | 27.4 | 0.00 | 0.00 | 0.00 | 50 | 1010.2 |
| 20260506134556 | 21 | 180 | 9.7 | 29.0 | 0.00 | 0.00 | 0.00 | 49 | 1010.1 |
| 20260506134057 | 21 | 90 | 6.4 | 24.1 | 0.00 | 0.00 | 0.00 | 47 | 1010.1 |
| 20260506133556 | 22 | 135 | 9.7 | 30.6 | 0.00 | 0.00 | 0.00 | 44 | 1009.9 |
| 20260506133055 | 22 | 180 | 11.3 | 29.0 | 0.00 | 0.00 | 0.00 | 46 | 1009.9 |
| 20260506132556 | 22 | 135 | 9.7 | 30.6 | 0.00 | 0.00 | 0.00 | 43 | 1010.0 |
| 20260506132056 | 22 | 180 | 9.7 | 32.2 | 0.00 | 0.00 | 0.00 | 43 | 1010.0 |
| 20260506131556 | 22 | 180 | 8.0 | 25.7 | 0.00 | 0.00 | 0.00 | 42 | 1010.1 |
| 20260506131056 | 22 | 45 | 8.0 | 20.9 | 0.00 | 0.00 | 0.00 | 42 | 1010.1 |
| 20260506130555 | 22 | 158 | 11.3 | 30.6 | 0.00 | 0.00 | 0.00 | 42 | 1010.2 |
| 20260506130056 | 22 | 180 | 6.4 | 20.9 | 0.00 | 0.00 | 0.00 | 41 | 1010.2 |
| 20260506125556 | 22 | 180 | 6.4 | 20.9 | 0.00 | 0.00 | 0.00 | 41 | 1010.2 |
| 20260506125056 | 22 | 270 | 11.3 | 37.0 | 0.00 | 0.00 | 0.00 | 41 | 1010.3 |
| 20260506124556 | 23 | 135 | 11.3 | 32.2 | 0.00 | 0.00 | 0.00 | 41 | 1010.0 |
| 20260506124055 | 23 | 135 | 11.3 | 33.8 | 0.00 | 0.00 | 0.00 | 40 | 1010.2 |
| 20260506123556 | 23 | 135 | 11.3 | 33.8 | 0.00 | 0.00 | 0.00 | 40 | 1010.2 |
| 20260506123055 | 23 | 180 | 9.7 | 29.0 | 0.00 | 0.00 | 0.00 | 40 | 1010.3 |
| 20260506122556 | 23 | 180 | 4.8 | 17.7 | 0.00 | 0.00 | 0.00 | 40 | 1010.5 |
| 20260506122056 | 23 | 180 | 6.4 | 20.9 | 0.00 | 0.00 | 0.00 | 41 | 1010.6 |
| 20260506121557 | 23 | 180 | 6.4 | 20.9 | 0.00 | 0.00 | 0.00 | 41 | 1010.6 |
| 20260506121056 | 23 | 180 | 8.0 | 24.1 | 0.00 | 0.00 | 0.00 | 41 | 1010.5 |
| 20260506120557 | 22 | 68 | 4.8 | 14.5 | 0.00 | 0.00 | 0.00 | 44 | 1010.5 |
| 20260506120055 | 23 | 180 | 8.0 | 22.5 | 0.00 | 0.00 | 0.00 | 41 | 1010.4 |
| 20260506115556 | 23 | 180 | 8.0 | 22.5 | 0.00 | 0.00 | 0.00 | 41 | 1010.4 |
| 20260506115056 | 23 | 180 | 8.0 | 22.5 | 0.00 | 0.00 | 0.00 | 40 | 1010.5 |
| 20260506114555 | 23 | 135 | 4.8 | 12.9 | 0.00 | 0.00 | 0.00 | 41 | 1010.5 |
| 20260506114055 | 22 | 135 | 4.8 | 14.5 | 0.00 | 0.00 | 0.00 | 46 | 1010.7 |
| 20260506113556 | 22 | 135 | 4.8 | 14.5 | 0.00 | 0.00 | 0.00 | 46 | 1010.7 |
| 20260506113055 | 21 | 180 | 8.0 | 24.1 | 0.00 | 0.00 | 0.00 | 47 | 1010.8 |
| 20260506112555 | 21 | 180 | 9.7 | 24.1 | 0.00 | 0.00 | 0.00 | 46 | 1010.9 |
| 20260506112056 | 22 | 135 | 6.4 | 17.7 | 0.00 | 0.00 | 0.00 | 45 | 1011.0 |
| 20260506111556 | 22 | 135 | 6.4 | 17.7 | 0.00 | 0.00 | 0.00 | 45 | 1011.0 |
| 20260506111056 | 21 | 225 | 6.4 | 20.9 | 0.00 | 0.00 | 0.00 | 45 | 1010.9 |
| 20260506110555 | 21 | 135 | 4.8 | 17.7 | 0.00 | 0.00 | 0.00 | 44 | 1011.2 |
| 20260506110055 | 21 | 135 | 6.4 | 19.3 | 0.00 | 0.00 | 0.00 | 49 | 1011.4 |
| 20260506105555 | 21 | 135 | 6.4 | 19.3 | 0.00 | 0.00 | 0.00 | 49 | 1011.4 |
| 20260506105056 | 21 | 180 | 3.2 | 8.0 | 0.00 | 0.00 | 0.00 | 49 | 1011.4 |
| 20260506104555 | 21 | 180 | 6.4 | 14.5 | 0.00 | 0.00 | 0.00 | 49 | 1011.5 |
| 20260506104056 | 21 | 135 | 4.8 | 16.1 | 0.00 | 0.00 | 0.00 | 49 | 1011.4 |
| 20260506103556 | 21 | 135 | 4.8 | 16.1 | 0.00 | 0.00 | 0.00 | 49 | 1011.4 |
| 20260506103055 | 21 | 90 | 6.4 | 19.3 | 0.00 | 0.00 | 0.00 | 49 | 1011.6 |
| 20260506102555 | 21 | 180 | 6.4 | 17.7 | 0.00 | 0.00 | 0.00 | 49 | 1011.5 |
| 20260506102055 | 21 | 225 | 3.2 | 12.9 | 0.00 | 0.00 | 0.00 | 50 | 1011.6 |
| 20260506101555 | 21 | 225 | 3.2 | 12.9 | 0.00 | 0.00 | 0.00 | 50 | 1011.6 |
| 20260506101055 | 20 | 180 | 6.4 | 19.3 | 0.00 | 0.00 | 0.00 | 48 | 1011.7 |
| 20260506100555 | 20 | 135 | 3.2 | 12.9 | 0.00 | 0.00 | 0.00 | 46 | 1011.6 |